sensor_id;sensor_type;location;lat;lon;timestamp;P1;durP1;ratioP1;P2;durP2;ratioP2
35909;SDS011;22004;49.120;-0.200;2022-12-07T00:00:55;45.08;;;23.52;;
35909;SDS011;22004;49.120;-0.200;2022-12-07T00:03:29;48.03;;;24.38;;
35909;SDS011;22004;49.120;-0.200;2022-12-07T00:05:57;43.33;;;22.85;;
35909;SDS011;22004;49.120;-0.200;2022-12-07T00:08:23;43.40;;;21.80;;
35909;SDS011;22004;49.120;-0.200;2022-12-07T00:10:48;43.17;;;22.00;;
35909;SDS011;22004;49.120;-0.200;2022-12-07T00:13:13;45.03;;;22.30;;
35909;SDS011;22004;49.120;-0.200;2022-12-07T00:15:39;41.75;;;22.45;;
35909;SDS011;22004;49.120;-0.200;2022-12-07T00:18:04;39.17;;;21.70;;
35909;SDS011;22004;49.120;-0.200;2022-12-07T00:20:29;37.72;;;20.98;;
35909;SDS011;22004;49.120;-0.200;2022-12-07T00:22:56;43.65;;;23.13;;
35909;SDS011;22004;49.120;-0.200;2022-12-07T00:25:21;41.78;;;22.23;;
35909;SDS011;22004;49.120;-0.200;2022-12-07T00:27:46;45.85;;;22.08;;
35909;SDS011;22004;49.120;-0.200;2022-12-07T00:30:12;41.88;;;21.75;;
35909;SDS011;22004;49.120;-0.200;2022-12-07T00:32:37;41.92;;;22.30;;
35909;SDS011;22004;49.120;-0.200;2022-12-07T00:35:03;43.75;;;23.05;;
35909;SDS011;22004;49.120;-0.200;2022-12-07T00:37:28;44.20;;;22.58;;
35909;SDS011;22004;49.120;-0.200;2022-12-07T00:39:54;42.40;;;22.63;;
35909;SDS011;22004;49.120;-0.200;2022-12-07T00:42:19;40.42;;;21.48;;
35909;SDS011;22004;49.120;-0.200;2022-12-07T00:44:44;40.05;;;21.63;;
35909;SDS011;22004;49.120;-0.200;2022-12-07T00:47:09;41.28;;;21.77;;
35909;SDS011;22004;49.120;-0.200;2022-12-07T00:49:35;40.25;;;21.30;;
35909;SDS011;22004;49.120;-0.200;2022-12-07T00:52:00;39.20;;;20.67;;
35909;SDS011;22004;49.120;-0.200;2022-12-07T00:54:26;39.60;;;20.70;;
35909;SDS011;22004;49.120;-0.200;2022-12-07T00:56:51;40.83;;;22.30;;
35909;SDS011;22004;49.120;-0.200;2022-12-07T00:59:16;39.33;;;21.65;;
35909;SDS011;22004;49.120;-0.200;2022-12-07T01:01:42;39.22;;;21.65;;
35909;SDS011;22004;49.120;-0.200;2022-12-07T01:04:07;42.08;;;22.10;;
35909;SDS011;22004;49.120;-0.200;2022-12-07T01:06:33;39.75;;;21.42;;
35909;SDS011;22004;49.120;-0.200;2022-12-07T01:08:59;39.45;;;20.83;;
35909;SDS011;22004;49.120;-0.200;2022-12-07T01:11:27;40.00;;;21.50;;
35909;SDS011;22004;49.120;-0.200;2022-12-07T01:13:54;37.50;;;20.90;;
35909;SDS011;22004;49.120;-0.200;2022-12-07T01:16:22;37.95;;;20.77;;
35909;SDS011;22004;49.120;-0.200;2022-12-07T01:18:49;39.53;;;21.27;;
35909;SDS011;22004;49.120;-0.200;2022-12-07T01:21:17;37.50;;;19.77;;
35909;SDS011;22004;49.120;-0.200;2022-12-07T01:23:47;46.75;;;21.73;;
35909;SDS011;22004;49.120;-0.200;2022-12-07T01:26:14;38.05;;;20.58;;
35909;SDS011;22004;49.120;-0.200;2022-12-07T01:28:42;34.90;;;19.98;;
35909;SDS011;22004;49.120;-0.200;2022-12-07T01:31:08;42.00;;;19.02;;
35909;SDS011;22004;49.120;-0.200;2022-12-07T01:33:42;34.88;;;19.65;;
35909;SDS011;22004;49.120;-0.200;2022-12-07T01:38:41;37.25;;;20.13;;
35909;SDS011;22004;49.120;-0.200;2022-12-07T01:41:07;36.75;;;20.05;;
35909;SDS011;22004;49.120;-0.200;2022-12-07T01:43:33;41.03;;;19.88;;
35909;SDS011;22004;49.120;-0.200;2022-12-07T01:45:59;34.30;;;19.33;;
35909;SDS011;22004;49.120;-0.200;2022-12-07T01:48:30;34.60;;;19.05;;
35909;SDS011;22004;49.120;-0.200;2022-12-07T01:51:00;34.88;;;19.40;;
35909;SDS011;22004;49.120;-0.200;2022-12-07T01:53:29;35.40;;;18.95;;
35909;SDS011;22004;49.120;-0.200;2022-12-07T01:55:56;36.20;;;19.52;;
35909;SDS011;22004;49.120;-0.200;2022-12-07T01:58:24;33.55;;;19.17;;
35909;SDS011;22004;49.120;-0.200;2022-12-07T02:00:50;38.25;;;19.85;;
35909;SDS011;22004;49.120;-0.200;2022-12-07T02:03:27;35.22;;;19.70;;
35909;SDS011;22004;49.120;-0.200;2022-12-07T02:05:56;36.10;;;19.73;;
35909;SDS011;22004;49.120;-0.200;2022-12-07T02:08:24;33.78;;;19.38;;
35909;SDS011;22004;49.120;-0.200;2022-12-07T02:10:50;34.53;;;18.80;;
35909;SDS011;22004;49.120;-0.200;2022-12-07T02:13:16;34.30;;;19.45;;
35909;SDS011;22004;49.120;-0.200;2022-12-07T02:29:10;34.27;;;18.83;;
35909;SDS011;22004;49.120;-0.200;2022-12-07T02:36:53;34.20;;;18.52;;
35909;SDS011;22004;49.120;-0.200;2022-12-07T02:39:28;36.30;;;18.65;;
35909;SDS011;22004;49.120;-0.200;2022-12-07T02:42:02;38.20;;;18.75;;
35909;SDS011;22004;49.120;-0.200;2022-12-07T02:44:35;35.35;;;17.77;;
35909;SDS011;22004;49.120;-0.200;2022-12-07T02:47:02;36.33;;;18.45;;
35909;SDS011;22004;49.120;-0.200;2022-12-07T02:49:32;35.45;;;19.35;;
35909;SDS011;22004;49.120;-0.200;2022-12-07T02:51:58;37.58;;;19.08;;
35909;SDS011;22004;49.120;-0.200;2022-12-07T02:54:23;36.47;;;18.55;;
35909;SDS011;22004;49.120;-0.200;2022-12-07T02:56:55;35.58;;;18.90;;
35909;SDS011;22004;49.120;-0.200;2022-12-07T03:05:07;37.97;;;19.60;;
35909;SDS011;22004;49.120;-0.200;2022-12-07T03:07:41;38.85;;;19.25;;
35909;SDS011;22004;49.120;-0.200;2022-12-07T03:10:16;37.40;;;18.95;;
35909;SDS011;22004;49.120;-0.200;2022-12-07T03:12:54;36.45;;;18.42;;
35909;SDS011;22004;49.120;-0.200;2022-12-07T03:15:33;40.35;;;19.70;;
35909;SDS011;22004;49.120;-0.200;2022-12-07T03:18:02;39.42;;;19.30;;
35909;SDS011;22004;49.120;-0.200;2022-12-07T03:20:30;38.80;;;19.20;;
35909;SDS011;22004;49.120;-0.200;2022-12-07T03:22:59;41.28;;;19.40;;
35909;SDS011;22004;49.120;-0.200;2022-12-07T03:25:25;38.90;;;19.10;;
35909;SDS011;22004;49.120;-0.200;2022-12-07T03:27:58;42.67;;;20.90;;
35909;SDS011;22004;49.120;-0.200;2022-12-07T03:30:35;36.15;;;19.05;;
35909;SDS011;22004;49.120;-0.200;2022-12-07T03:33:08;38.05;;;20.52;;
35909;SDS011;22004;49.120;-0.200;2022-12-07T03:35:39;36.83;;;17.92;;
35909;SDS011;22004;49.120;-0.200;2022-12-07T03:38:16;37.97;;;18.33;;
35909;SDS011;22004;49.120;-0.200;2022-12-07T03:41:00;34.00;;;19.02;;
35909;SDS011;22004;49.120;-0.200;2022-12-07T03:43:29;36.53;;;19.38;;
35909;SDS011;22004;49.120;-0.200;2022-12-07T03:49:31;39.80;;;19.65;;
35909;SDS011;22004;49.120;-0.200;2022-12-07T03:54:18;36.92;;;19.48;;
35909;SDS011;22004;49.120;-0.200;2022-12-07T03:56:47;35.63;;;18.85;;
35909;SDS011;22004;49.120;-0.200;2022-12-07T03:59:14;38.78;;;19.35;;
35909;SDS011;22004;49.120;-0.200;2022-12-07T04:01:41;35.22;;;18.60;;
35909;SDS011;22004;49.120;-0.200;2022-12-07T04:04:15;37.45;;;17.92;;
35909;SDS011;22004;49.120;-0.200;2022-12-07T04:06:41;34.60;;;18.13;;
35909;SDS011;22004;49.120;-0.200;2022-12-07T04:09:07;34.33;;;17.90;;
35909;SDS011;22004;49.120;-0.200;2022-12-07T04:11:32;38.42;;;18.92;;
35909;SDS011;22004;49.120;-0.200;2022-12-07T04:13:57;40.22;;;18.52;;
35909;SDS011;22004;49.120;-0.200;2022-12-07T04:16:41;36.28;;;18.02;;
35909;SDS011;22004;49.120;-0.200;2022-12-07T04:19:07;37.08;;;18.33;;
35909;SDS011;22004;49.120;-0.200;2022-12-07T04:21:32;35.03;;;17.38;;
35909;SDS011;22004;49.120;-0.200;2022-12-07T04:23:57;42.30;;;18.50;;
35909;SDS011;22004;49.120;-0.200;2022-12-07T04:26:23;40.53;;;18.88;;
35909;SDS011;22004;49.120;-0.200;2022-12-07T04:28:48;38.42;;;18.17;;
35909;SDS011;22004;49.120;-0.200;2022-12-07T04:31:13;37.65;;;18.63;;
35909;SDS011;22004;49.120;-0.200;2022-12-07T04:33:39;39.17;;;20.33;;
35909;SDS011;22004;49.120;-0.200;2022-12-07T04:36:04;38.75;;;18.30;;
35909;SDS011;22004;49.120;-0.200;2022-12-07T04:38:30;36.15;;;18.13;;
35909;SDS011;22004;49.120;-0.200;2022-12-07T04:40:55;39.08;;;19.00;;
35909;SDS011;22004;49.120;-0.200;2022-12-07T04:43:21;34.28;;;18.02;;
35909;SDS011;22004;49.120;-0.200;2022-12-07T04:45:46;38.63;;;19.25;;
35909;SDS011;22004;49.120;-0.200;2022-12-07T04:48:13;34.05;;;17.73;;
35909;SDS011;22004;49.120;-0.200;2022-12-07T04:50:38;35.85;;;18.98;;
35909;SDS011;22004;49.120;-0.200;2022-12-07T04:53:04;37.42;;;18.23;;
35909;SDS011;22004;49.120;-0.200;2022-12-07T04:55:29;36.25;;;18.60;;
35909;SDS011;22004;49.120;-0.200;2022-12-07T04:57:54;40.38;;;18.92;;
35909;SDS011;22004;49.120;-0.200;2022-12-07T05:00:20;40.45;;;18.42;;
35909;SDS011;22004;49.120;-0.200;2022-12-07T05:02:45;39.15;;;17.80;;
35909;SDS011;22004;49.120;-0.200;2022-12-07T05:05:10;37.42;;;18.75;;
35909;SDS011;22004;49.120;-0.200;2022-12-07T05:07:36;36.42;;;17.38;;
35909;SDS011;22004;49.120;-0.200;2022-12-07T05:10:01;37.10;;;18.08;;
35909;SDS011;22004;49.120;-0.200;2022-12-07T05:12:26;41.30;;;20.27;;
35909;SDS011;22004;49.120;-0.200;2022-12-07T05:14:52;35.03;;;18.13;;
35909;SDS011;22004;49.120;-0.200;2022-12-07T05:17:17;39.85;;;19.00;;
35909;SDS011;22004;49.120;-0.200;2022-12-07T05:19:42;39.13;;;18.50;;
35909;SDS011;22004;49.120;-0.200;2022-12-07T05:22:08;37.10;;;18.30;;
35909;SDS011;22004;49.120;-0.200;2022-12-07T05:24:33;38.78;;;18.63;;
35909;SDS011;22004;49.120;-0.200;2022-12-07T05:26:58;40.35;;;19.67;;
35909;SDS011;22004;49.120;-0.200;2022-12-07T05:29:24;36.28;;;18.67;;
35909;SDS011;22004;49.120;-0.200;2022-12-07T05:31:49;37.45;;;19.02;;
35909;SDS011;22004;49.120;-0.200;2022-12-07T05:34:14;39.83;;;19.55;;
35909;SDS011;22004;49.120;-0.200;2022-12-07T05:36:40;43.00;;;19.48;;
35909;SDS011;22004;49.120;-0.200;2022-12-07T05:39:05;45.92;;;21.35;;
35909;SDS011;22004;49.120;-0.200;2022-12-07T05:41:32;42.80;;;19.42;;
35909;SDS011;22004;49.120;-0.200;2022-12-07T05:44:16;41.30;;;20.10;;
35909;SDS011;22004;49.120;-0.200;2022-12-07T05:46:41;43.50;;;19.10;;
35909;SDS011;22004;49.120;-0.200;2022-12-07T05:49:07;41.92;;;20.20;;
35909;SDS011;22004;49.120;-0.200;2022-12-07T05:51:32;43.65;;;20.08;;
35909;SDS011;22004;49.120;-0.200;2022-12-07T05:53:57;49.92;;;21.00;;
35909;SDS011;22004;49.120;-0.200;2022-12-07T05:56:23;43.63;;;20.60;;
35909;SDS011;22004;49.120;-0.200;2022-12-07T05:58:49;39.38;;;18.95;;
35909;SDS011;22004;49.120;-0.200;2022-12-07T06:01:33;45.83;;;21.77;;
35909;SDS011;22004;49.120;-0.200;2022-12-07T06:03:58;50.72;;;21.35;;
35909;SDS011;22004;49.120;-0.200;2022-12-07T06:06:24;44.65;;;20.70;;
35909;SDS011;22004;49.120;-0.200;2022-12-07T06:08:49;46.42;;;22.35;;
35909;SDS011;22004;49.120;-0.200;2022-12-07T06:11:15;43.90;;;20.33;;
35909;SDS011;22004;49.120;-0.200;2022-12-07T06:13:58;48.65;;;22.38;;
35909;SDS011;22004;49.120;-0.200;2022-12-07T06:16:24;54.08;;;25.73;;
35909;SDS011;22004;49.120;-0.200;2022-12-07T06:18:49;45.83;;;22.02;;
35909;SDS011;22004;49.120;-0.200;2022-12-07T06:21:14;42.97;;;20.00;;
35909;SDS011;22004;49.120;-0.200;2022-12-07T06:23:40;45.15;;;22.00;;
35909;SDS011;22004;49.120;-0.200;2022-12-07T06:26:05;48.67;;;21.77;;
35909;SDS011;22004;49.120;-0.200;2022-12-07T06:28:30;40.28;;;20.10;;
35909;SDS011;22004;49.120;-0.200;2022-12-07T06:30:57;41.20;;;19.63;;
35909;SDS011;22004;49.120;-0.200;2022-12-07T06:33:26;51.10;;;21.45;;
35909;SDS011;22004;49.120;-0.200;2022-12-07T06:35:51;49.05;;;21.20;;
35909;SDS011;22004;49.120;-0.200;2022-12-07T06:38:17;39.63;;;20.23;;
35909;SDS011;22004;49.120;-0.200;2022-12-07T06:40:42;57.75;;;22.25;;
35909;SDS011;22004;49.120;-0.200;2022-12-07T06:43:08;44.20;;;20.25;;
35909;SDS011;22004;49.120;-0.200;2022-12-07T06:45:33;37.85;;;19.05;;
35909;SDS011;22004;49.120;-0.200;2022-12-07T06:47:58;39.97;;;18.00;;
35909;SDS011;22004;49.120;-0.200;2022-12-07T06:50:24;39.22;;;19.15;;
35909;SDS011;22004;49.120;-0.200;2022-12-07T06:52:50;40.15;;;19.25;;
35909;SDS011;22004;49.120;-0.200;2022-12-07T06:55:16;32.42;;;17.85;;
35909;SDS011;22004;49.120;-0.200;2022-12-07T06:57:41;34.35;;;17.88;;
35909;SDS011;22004;49.120;-0.200;2022-12-07T07:00:07;35.05;;;18.80;;
35909;SDS011;22004;49.120;-0.200;2022-12-07T07:02:33;30.88;;;17.00;;
35909;SDS011;22004;49.120;-0.200;2022-12-07T07:04:58;35.17;;;18.08;;
35909;SDS011;22004;49.120;-0.200;2022-12-07T07:07:24;28.88;;;15.88;;
35909;SDS011;22004;49.120;-0.200;2022-12-07T07:09:49;29.83;;;16.90;;
35909;SDS011;22004;49.120;-0.200;2022-12-07T07:12:14;34.60;;;17.52;;
35909;SDS011;22004;49.120;-0.200;2022-12-07T07:14:39;33.72;;;17.50;;
35909;SDS011;22004;49.120;-0.200;2022-12-07T07:17:05;31.10;;;16.55;;
35909;SDS011;22004;49.120;-0.200;2022-12-07T07:19:30;30.73;;;16.75;;
35909;SDS011;22004;49.120;-0.200;2022-12-07T07:21:55;26.52;;;16.33;;
35909;SDS011;22004;49.120;-0.200;2022-12-07T07:24:21;32.53;;;16.25;;
35909;SDS011;22004;49.120;-0.200;2022-12-07T07:26:46;26.85;;;15.82;;
35909;SDS011;22004;49.120;-0.200;2022-12-07T07:29:11;34.00;;;16.88;;
35909;SDS011;22004;49.120;-0.200;2022-12-07T07:31:37;30.63;;;15.88;;
35909;SDS011;22004;49.120;-0.200;2022-12-07T07:34:02;29.63;;;15.50;;
35909;SDS011;22004;49.120;-0.200;2022-12-07T07:36:28;30.00;;;16.35;;
35909;SDS011;22004;49.120;-0.200;2022-12-07T07:38:53;32.28;;;15.68;;
35909;SDS011;22004;49.120;-0.200;2022-12-07T07:41:18;31.95;;;16.20;;
35909;SDS011;22004;49.120;-0.200;2022-12-07T07:43:44;30.58;;;15.45;;
35909;SDS011;22004;49.120;-0.200;2022-12-07T07:46:10;29.60;;;15.10;;
35909;SDS011;22004;49.120;-0.200;2022-12-07T07:48:35;30.88;;;15.55;;
35909;SDS011;22004;49.120;-0.200;2022-12-07T07:51:00;24.20;;;14.15;;
35909;SDS011;22004;49.120;-0.200;2022-12-07T07:53:30;24.52;;;14.57;;
35909;SDS011;22004;49.120;-0.200;2022-12-07T07:55:56;26.42;;;13.75;;
35909;SDS011;22004;49.120;-0.200;2022-12-07T07:58:21;33.42;;;14.98;;
35909;SDS011;22004;49.120;-0.200;2022-12-07T08:00:47;24.52;;;14.77;;
35909;SDS011;22004;49.120;-0.200;2022-12-07T08:03:13;25.27;;;15.25;;
35909;SDS011;22004;49.120;-0.200;2022-12-07T08:05:38;27.48;;;15.27;;
35909;SDS011;22004;49.120;-0.200;2022-12-07T08:08:03;28.45;;;15.80;;
35909;SDS011;22004;49.120;-0.200;2022-12-07T08:10:29;28.17;;;15.15;;
35909;SDS011;22004;49.120;-0.200;2022-12-07T08:12:57;24.85;;;14.43;;
35909;SDS011;22004;49.120;-0.200;2022-12-07T08:15:36;31.27;;;15.30;;
35909;SDS011;22004;49.120;-0.200;2022-12-07T08:18:03;26.65;;;14.85;;
35909;SDS011;22004;49.120;-0.200;2022-12-07T08:20:32;33.03;;;15.52;;
35909;SDS011;22004;49.120;-0.200;2022-12-07T08:22:58;33.47;;;15.85;;
35909;SDS011;22004;49.120;-0.200;2022-12-07T08:25:24;28.60;;;15.32;;
35909;SDS011;22004;49.120;-0.200;2022-12-07T08:27:50;37.53;;;16.05;;
35909;SDS011;22004;49.120;-0.200;2022-12-07T08:30:16;22.60;;;13.35;;
35909;SDS011;22004;49.120;-0.200;2022-12-07T08:32:41;27.08;;;15.63;;
35909;SDS011;22004;49.120;-0.200;2022-12-07T08:35:09;23.92;;;13.95;;
35909;SDS011;22004;49.120;-0.200;2022-12-07T08:37:34;25.73;;;15.10;;
35909;SDS011;22004;49.120;-0.200;2022-12-07T08:40:00;28.50;;;14.63;;
35909;SDS011;22004;49.120;-0.200;2022-12-07T08:42:25;30.88;;;14.30;;
35909;SDS011;22004;49.120;-0.200;2022-12-07T08:44:54;23.10;;;13.95;;
35909;SDS011;22004;49.120;-0.200;2022-12-07T08:47:22;29.85;;;14.15;;
35909;SDS011;22004;49.120;-0.200;2022-12-07T08:49:49;25.75;;;15.35;;
35909;SDS011;22004;49.120;-0.200;2022-12-07T08:52:16;24.98;;;15.00;;
35909;SDS011;22004;49.120;-0.200;2022-12-07T08:54:42;20.92;;;13.07;;
35909;SDS011;22004;49.120;-0.200;2022-12-07T08:57:08;26.02;;;14.73;;
35909;SDS011;22004;49.120;-0.200;2022-12-07T08:59:35;23.63;;;14.10;;
35909;SDS011;22004;49.120;-0.200;2022-12-07T09:02:01;28.75;;;14.32;;
35909;SDS011;22004;49.120;-0.200;2022-12-07T09:04:27;24.80;;;14.70;;
35909;SDS011;22004;49.120;-0.200;2022-12-07T09:06:53;32.70;;;15.45;;
35909;SDS011;22004;49.120;-0.200;2022-12-07T09:09:19;28.05;;;15.40;;
35909;SDS011;22004;49.120;-0.200;2022-12-07T09:11:44;27.15;;;15.27;;
35909;SDS011;22004;49.120;-0.200;2022-12-07T09:14:10;25.42;;;14.57;;
35909;SDS011;22004;49.120;-0.200;2022-12-07T09:16:37;31.17;;;16.85;;
35909;SDS011;22004;49.120;-0.200;2022-12-07T09:19:02;27.73;;;15.80;;
35909;SDS011;22004;49.120;-0.200;2022-12-07T09:21:28;25.88;;;15.77;;
35909;SDS011;22004;49.120;-0.200;2022-12-07T09:23:53;43.40;;;23.90;;
35909;SDS011;22004;49.120;-0.200;2022-12-07T09:26:18;35.53;;;21.65;;
35909;SDS011;22004;49.120;-0.200;2022-12-07T09:28:44;35.55;;;19.63;;
35909;SDS011;22004;49.120;-0.200;2022-12-07T09:31:09;25.30;;;15.45;;
35909;SDS011;22004;49.120;-0.200;2022-12-07T09:33:35;29.45;;;17.17;;
35909;SDS011;22004;49.120;-0.200;2022-12-07T09:36:00;35.58;;;19.40;;
35909;SDS011;22004;49.120;-0.200;2022-12-07T09:38:25;27.92;;;16.70;;
35909;SDS011;22004;49.120;-0.200;2022-12-07T09:40:51;29.05;;;16.55;;
35909;SDS011;22004;49.120;-0.200;2022-12-07T09:43:20;40.80;;;21.23;;
35909;SDS011;22004;49.120;-0.200;2022-12-07T09:45:50;35.22;;;19.63;;
35909;SDS011;22004;49.120;-0.200;2022-12-07T09:48:19;36.50;;;20.00;;
35909;SDS011;22004;49.120;-0.200;2022-12-07T09:51:25;30.10;;;17.55;;
35909;SDS011;22004;49.120;-0.200;2022-12-07T09:53:50;28.42;;;16.85;;
35909;SDS011;22004;49.120;-0.200;2022-12-07T09:56:21;41.58;;;23.27;;
35909;SDS011;22004;49.120;-0.200;2022-12-07T09:58:47;28.77;;;17.05;;
35909;SDS011;22004;49.120;-0.200;2022-12-07T10:01:15;32.85;;;18.95;;
35909;SDS011;22004;49.120;-0.200;2022-12-07T10:06:19;29.73;;;17.42;;
35909;SDS011;22004;49.120;-0.200;2022-12-07T10:08:45;29.17;;;17.67;;
35909;SDS011;22004;49.120;-0.200;2022-12-07T10:11:11;32.20;;;18.25;;
35909;SDS011;22004;49.120;-0.200;2022-12-07T10:13:41;34.00;;;18.98;;
35909;SDS011;22004;49.120;-0.200;2022-12-07T10:18:49;28.13;;;16.65;;
35909;SDS011;22004;49.120;-0.200;2022-12-07T10:21:16;36.17;;;20.58;;
35909;SDS011;22004;49.120;-0.200;2022-12-07T10:29:29;27.25;;;16.45;;
35909;SDS011;22004;49.120;-0.200;2022-12-07T10:32:04;27.42;;;16.40;;
35909;SDS011;22004;49.120;-0.200;2022-12-07T10:34:41;28.65;;;16.13;;
35909;SDS011;22004;49.120;-0.200;2022-12-07T10:59:51;25.80;;;15.30;;
35909;SDS011;22004;49.120;-0.200;2022-12-07T11:10:18;25.30;;;15.23;;
35909;SDS011;22004;49.120;-0.200;2022-12-07T11:15:16;24.95;;;15.15;;
35909;SDS011;22004;49.120;-0.200;2022-12-07T11:37:19;25.52;;;15.23;;
35909;SDS011;22004;49.120;-0.200;2022-12-07T11:42:15;36.97;;;19.00;;
35909;SDS011;22004;49.120;-0.200;2022-12-07T11:44:48;35.25;;;20.67;;
35909;SDS011;22004;49.120;-0.200;2022-12-07T11:52:43;27.98;;;17.15;;
35909;SDS011;22004;49.120;-0.200;2022-12-07T11:55:17;25.38;;;15.80;;
35909;SDS011;22004;49.120;-0.200;2022-12-07T11:57:51;27.75;;;16.15;;
35909;SDS011;22004;49.120;-0.200;2022-12-07T12:00:25;27.85;;;16.55;;
35909;SDS011;22004;49.120;-0.200;2022-12-07T12:05:35;23.80;;;15.13;;
35909;SDS011;22004;49.120;-0.200;2022-12-07T12:08:25;24.50;;;14.63;;
35909;SDS011;22004;49.120;-0.200;2022-12-07T12:11:05;28.83;;;17.55;;
35909;SDS011;22004;49.120;-0.200;2022-12-07T12:13:54;25.27;;;17.02;;
35909;SDS011;22004;49.120;-0.200;2022-12-07T12:22:19;29.27;;;15.50;;
35909;SDS011;22004;49.120;-0.200;2022-12-07T12:24:49;25.48;;;16.05;;
35909;SDS011;22004;49.120;-0.200;2022-12-07T12:27:23;29.10;;;16.90;;
35909;SDS011;22004;49.120;-0.200;2022-12-07T12:29:57;28.73;;;17.25;;
35909;SDS011;22004;49.120;-0.200;2022-12-07T12:37:46;22.58;;;14.60;;
35909;SDS011;22004;49.120;-0.200;2022-12-07T12:42:47;25.30;;;15.00;;
35909;SDS011;22004;49.120;-0.200;2022-12-07T12:50:32;26.10;;;16.08;;
35909;SDS011;22004;49.120;-0.200;2022-12-07T13:00:45;23.67;;;15.05;;
35909;SDS011;22004;49.120;-0.200;2022-12-07T13:03:26;23.23;;;14.07;;
35909;SDS011;22004;49.120;-0.200;2022-12-07T13:08:55;24.10;;;13.68;;
35909;SDS011;22004;49.120;-0.200;2022-12-07T13:11:29;24.33;;;14.85;;
35909;SDS011;22004;49.120;-0.200;2022-12-07T13:17:02;21.58;;;14.10;;
35909;SDS011;22004;49.120;-0.200;2022-12-07T13:25:07;22.42;;;14.02;;
35909;SDS011;22004;49.120;-0.200;2022-12-07T13:27:34;23.00;;;13.70;;
35909;SDS011;22004;49.120;-0.200;2022-12-07T13:30:09;19.98;;;13.18;;
35909;SDS011;22004;49.120;-0.200;2022-12-07T13:32:39;20.77;;;13.70;;
35909;SDS011;22004;49.120;-0.200;2022-12-07T13:38:22;21.20;;;13.07;;
35909;SDS011;22004;49.120;-0.200;2022-12-07T13:41:01;25.10;;;15.40;;
35909;SDS011;22004;49.120;-0.200;2022-12-07T13:46:40;23.75;;;14.60;;
35909;SDS011;22004;49.120;-0.200;2022-12-07T13:49:16;24.33;;;13.27;;
35909;SDS011;22004;49.120;-0.200;2022-12-07T13:51:44;21.85;;;14.13;;
35909;SDS011;22004;49.120;-0.200;2022-12-07T13:54:10;24.35;;;13.30;;
35909;SDS011;22004;49.120;-0.200;2022-12-07T13:56:38;21.58;;;13.27;;
35909;SDS011;22004;49.120;-0.200;2022-12-07T13:59:17;22.67;;;14.30;;
35909;SDS011;22004;49.120;-0.200;2022-12-07T14:01:46;23.80;;;14.48;;
35909;SDS011;22004;49.120;-0.200;2022-12-07T14:05:05;26.20;;;16.05;;
35909;SDS011;22004;49.120;-0.200;2022-12-07T14:09:54;24.75;;;13.63;;
35909;SDS011;22004;49.120;-0.200;2022-12-07T14:12:28;22.33;;;14.05;;
35909;SDS011;22004;49.120;-0.200;2022-12-07T14:14:55;23.63;;;13.55;;
35909;SDS011;22004;49.120;-0.200;2022-12-07T14:17:22;23.05;;;14.07;;
35909;SDS011;22004;49.120;-0.200;2022-12-07T14:22:27;25.35;;;14.45;;
35909;SDS011;22004;49.120;-0.200;2022-12-07T14:27:47;21.90;;;14.15;;
35909;SDS011;22004;49.120;-0.200;2022-12-07T14:30:20;24.13;;;14.38;;
35909;SDS011;22004;49.120;-0.200;2022-12-07T14:32:47;21.17;;;14.07;;
35909;SDS011;22004;49.120;-0.200;2022-12-07T14:35:17;20.38;;;13.18;;
35909;SDS011;22004;49.120;-0.200;2022-12-07T14:37:44;20.85;;;13.23;;
35909;SDS011;22004;49.120;-0.200;2022-12-07T14:40:13;22.70;;;13.57;;
35909;SDS011;22004;49.120;-0.200;2022-12-07T14:42:41;22.77;;;14.85;;
35909;SDS011;22004;49.120;-0.200;2022-12-07T14:45:12;22.95;;;13.23;;
35909;SDS011;22004;49.120;-0.200;2022-12-07T14:47:43;24.50;;;14.15;;
35909;SDS011;22004;49.120;-0.200;2022-12-07T14:50:11;22.27;;;13.75;;
35909;SDS011;22004;49.120;-0.200;2022-12-07T14:52:37;21.38;;;13.35;;
35909;SDS011;22004;49.120;-0.200;2022-12-07T14:55:04;20.95;;;13.45;;
35909;SDS011;22004;49.120;-0.200;2022-12-07T14:57:34;25.92;;;14.63;;
35909;SDS011;22004;49.120;-0.200;2022-12-07T14:59:59;23.80;;;14.50;;
35909;SDS011;22004;49.120;-0.200;2022-12-07T15:02:25;21.10;;;13.05;;
35909;SDS011;22004;49.120;-0.200;2022-12-07T15:04:50;23.75;;;14.50;;
35909;SDS011;22004;49.120;-0.200;2022-12-07T15:07:19;22.65;;;13.90;;
35909;SDS011;22004;49.120;-0.200;2022-12-07T15:09:46;24.23;;;13.68;;
35909;SDS011;22004;49.120;-0.200;2022-12-07T15:12:12;22.88;;;14.10;;
35909;SDS011;22004;49.120;-0.200;2022-12-07T15:14:37;21.38;;;13.45;;
35909;SDS011;22004;49.120;-0.200;2022-12-07T15:17:02;22.73;;;14.73;;
35909;SDS011;22004;49.120;-0.200;2022-12-07T15:19:28;22.92;;;13.57;;
35909;SDS011;22004;49.120;-0.200;2022-12-07T15:21:53;22.77;;;14.50;;
35909;SDS011;22004;49.120;-0.200;2022-12-07T15:24:19;23.02;;;14.15;;
35909;SDS011;22004;49.120;-0.200;2022-12-07T15:26:45;24.73;;;15.10;;
35909;SDS011;22004;49.120;-0.200;2022-12-07T15:29:11;24.92;;;15.05;;
35909;SDS011;22004;49.120;-0.200;2022-12-07T15:31:36;22.92;;;14.40;;
35909;SDS011;22004;49.120;-0.200;2022-12-07T15:34:02;22.92;;;13.55;;
35909;SDS011;22004;49.120;-0.200;2022-12-07T15:36:29;23.23;;;14.40;;
35909;SDS011;22004;49.120;-0.200;2022-12-07T15:38:55;24.75;;;15.00;;
35909;SDS011;22004;49.120;-0.200;2022-12-07T15:41:21;25.60;;;15.18;;
35909;SDS011;22004;49.120;-0.200;2022-12-07T15:43:47;26.15;;;14.63;;
35909;SDS011;22004;49.120;-0.200;2022-12-07T15:46:31;24.45;;;15.07;;
35909;SDS011;22004;49.120;-0.200;2022-12-07T15:48:58;25.17;;;14.98;;
35909;SDS011;22004;49.120;-0.200;2022-12-07T15:51:24;20.95;;;13.60;;
35909;SDS011;22004;49.120;-0.200;2022-12-07T15:53:50;25.80;;;14.52;;
35909;SDS011;22004;49.120;-0.200;2022-12-07T15:56:15;24.05;;;14.75;;
35909;SDS011;22004;49.120;-0.200;2022-12-07T15:58:41;23.80;;;13.90;;
35909;SDS011;22004;49.120;-0.200;2022-12-07T16:01:10;24.38;;;14.45;;
35909;SDS011;22004;49.120;-0.200;2022-12-07T16:03:36;22.73;;;13.93;;
35909;SDS011;22004;49.120;-0.200;2022-12-07T16:06:01;26.65;;;14.40;;
35909;SDS011;22004;49.120;-0.200;2022-12-07T16:08:27;27.40;;;15.45;;
35909;SDS011;22004;49.120;-0.200;2022-12-07T16:10:52;20.85;;;13.82;;
35909;SDS011;22004;49.120;-0.200;2022-12-07T16:13:17;24.88;;;14.98;;
35909;SDS011;22004;49.120;-0.200;2022-12-07T16:15:44;24.30;;;14.65;;
35909;SDS011;22004;49.120;-0.200;2022-12-07T16:18:09;25.00;;;14.80;;
35909;SDS011;22004;49.120;-0.200;2022-12-07T16:20:35;22.50;;;14.43;;
35909;SDS011;22004;49.120;-0.200;2022-12-07T16:23:00;21.73;;;14.15;;
35909;SDS011;22004;49.120;-0.200;2022-12-07T16:25:25;23.90;;;14.27;;
35909;SDS011;22004;49.120;-0.200;2022-12-07T16:27:51;27.88;;;15.45;;
35909;SDS011;22004;49.120;-0.200;2022-12-07T16:30:17;27.42;;;15.82;;
35909;SDS011;22004;49.120;-0.200;2022-12-07T16:32:43;23.08;;;15.00;;
35909;SDS011;22004;49.120;-0.200;2022-12-07T16:35:08;26.42;;;16.35;;
35909;SDS011;22004;49.120;-0.200;2022-12-07T16:37:34;27.90;;;16.02;;
35909;SDS011;22004;49.120;-0.200;2022-12-07T16:39:59;31.25;;;17.17;;
35909;SDS011;22004;49.120;-0.200;2022-12-07T16:42:25;26.20;;;15.50;;
35909;SDS011;22004;49.120;-0.200;2022-12-07T16:44:51;27.73;;;16.13;;
35909;SDS011;22004;49.120;-0.200;2022-12-07T16:47:17;26.20;;;16.33;;
35909;SDS011;22004;49.120;-0.200;2022-12-07T16:49:42;26.52;;;16.02;;
35909;SDS011;22004;49.120;-0.200;2022-12-07T16:52:08;28.25;;;15.88;;